Time;durP1;ratioP1;P1;durP2;ratioP2;P2;SDS_P1;SDS_P2;PMS_P1;PMS_P2;Temp;Humidity;BMP_temperature;BMP_pressure;BME280_temperature;BME280_humidity;BME280_pressure;Samples;Min_cycle;Max_cycle;Signal;HPM_P1;HPM_P2
2022/04/12 00:01:23;;;;;;;5.82;3.63;;;;;;;11.21;47.93;99622.72;5094254;28;20048;-60
2022/04/12 00:03:50;;;;;;;7.10;3.95;;;;;;;11.20;47.86;99630.72;5094327;28;20117;-60
2022/04/12 00:06:17;;;;;;;5.90;4.18;;;;;;;11.17;47.99;99626.47;5094154;28;20109;-60
2022/04/12 00:08:43;;;;;;;6.95;4.35;;;;;;;11.17;48.26;99617.72;5094080;28;20059;-60
2022/04/12 00:11:10;;;;;;;6.75;3.92;;;;;;;11.15;48.15;99625.75;5093728;28;20484;-61
2022/04/12 00:13:37;;;;;;;5.82;4.22;;;;;;;11.15;48.28;99619.63;5094263;28;20056;-60
2022/04/12 00:16:04;;;;;;;7.05;3.97;;;;;;;11.14;47.95;99615.28;5094128;28;20059;-60
2022/04/12 00:21:16;;;;;;;7.35;3.97;;;;;;;11.12;48.28;99617.16;5093763;28;20120;-60
2022/04/12 00:23:42;;;;;;;4.78;3.88;;;;;;;11.12;48.33;99611.91;5093737;28;20101;-60
2022/04/12 00:26:09;;;;;;;7.60;3.83;;;;;;;11.12;48.48;99614.53;5093750;28;20109;-59
2022/04/12 00:28:36;;;;;;;4.57;3.88;;;;;;;11.11;48.39;99603.16;5093647;28;20044;-60
2022/04/12 00:31:03;;;;;;;8.25;4.32;;;;;;;11.11;48.45;99605.78;5093425;28;20048;-62
2022/04/12 00:33:30;;;;;;;7.70;4.32;;;;;;;11.09;48.33;99597.13;5092468;28;20625;-61
2022/04/12 00:36:00;;;;;;;5.65;4.10;;;;;;;11.10;48.48;99603.25;5092245;28;20105;-60
2022/04/12 00:38:33;;;;;;;5.68;4.22;;;;;;;11.08;48.54;99606.84;5092251;28;20523;-60
2022/04/12 00:41:00;;;;;;;7.15;4.13;;;;;;;11.08;48.46;99601.56;5093569;28;20062;-60
2022/04/12 00:43:32;;;;;;;6.95;4.32;;;;;;;11.08;48.52;99598.94;5093537;28;20097;-60
2022/04/12 00:46:00;;;;;;;8.02;3.92;;;;;;;11.08;48.45;99592.81;5092291;28;20044;-60
2022/04/12 00:48:32;;;;;;;4.82;3.83;;;;;;;11.07;48.57;99593.75;5093124;28;20048;-60
2022/04/12 00:51:00;;;;;;;5.47;4.00;;;;;;;11.07;48.66;99591.13;5093136;28;20044;-62
2022/04/12 00:53:28;;;;;;;6.95;4.25;;;;;;;11.05;48.65;99585.94;5092218;28;20063;-60
2022/04/12 00:55:55;;;;;;;6.18;4.20;;;;;;;11.04;48.74;99580.75;5091854;28;20404;-60
2022/04/12 00:58:23;;;;;;;6.63;4.25;;;;;;;11.03;48.52;99579.91;5091955;28;20100;-60
2022/04/12 01:00:50;;;;;;;5.00;3.97;;;;;;;11.01;48.70;99571.28;5092886;28;20056;-61
2022/04/12 01:03:16;;;;;;;6.63;4.07;;;;;;;10.98;48.68;99563.56;5093172;28;20051;-60
2022/04/12 01:05:44;;;;;;;8.23;3.92;;;;;;;10.96;48.86;99573.34;5093142;28;20068;-60
2022/04/12 01:08:11;;;;;;;7.10;4.35;;;;;;;10.94;48.88;99575.22;5090678;28;20094;-60
2022/04/12 01:10:39;;;;;;;7.35;4.55;;;;;;;10.91;48.81;99570.97;5092745;28;20093;-60
2022/04/12 01:13:05;;;;;;;6.70;4.05;;;;;;;10.89;48.90;99572.03;5093255;28;20059;-61
2022/04/12 01:15:32;;;;;;;6.22;4.43;;;;;;;10.86;48.78;99570.44;5092742;28;20055;-60
2022/04/12 01:17:59;;;;;;;6.35;4.80;;;;;;;10.84;48.90;99559.13;5092917;28;20070;-60
2022/04/12 01:20:29;;;;;;;7.22;4.13;;;;;;;10.81;49.09;99557.53;5092623;28;20052;-59
2022/04/12 01:23:22;;;;;;;8.10;4.70;;;;;;;10.74;48.09;99564.13;5092726;28;20639;-60
2022/04/12 01:25:49;;;;;;;7.00;4.32;;;;;;;10.77;49.00;99574.44;5091414;28;20070;-60
2022/04/12 01:28:16;;;;;;;7.25;4.65;;;;;;;10.75;49.12;99567.59;5092426;28;20048;-60
2022/04/12 01:30:42;;;;;;;7.13;4.03;;;;;;;10.72;49.20;99568.63;5092137;28;20056;-61
2022/04/12 01:33:09;;;;;;;8.07;4.80;;;;;;;10.70;49.10;99565.25;5092622;28;20072;-61
2022/04/12 01:35:35;;;;;;;6.97;4.28;;;;;;;10.68;49.26;99561.84;5092680;28;20052;-59
2022/04/12 01:38:02;;;;;;;7.18;4.20;;;;;;;10.65;49.17;99554.16;5092277;28;20052;-60
2022/04/12 01:40:29;;;;;;;7.63;4.45;;;;;;;10.61;49.27;99550.84;5092295;28;20097;-60
2022/04/12 01:42:55;;;;;;;9.73;4.35;;;;;;;10.58;49.33;99548.41;5092195;28;20105;-60
2022/04/12 01:45:24;;;;;;;9.18;4.25;;;;;;;10.57;49.47;99548.50;5092367;28;20090;-61
2022/04/12 01:47:51;;;;;;;9.05;4.13;;;;;;;10.54;49.59;99541.63;5091090;28;20408;-59
2022/04/12 01:50:18;;;;;;;5.10;3.80;;;;;;;10.52;49.46;99546.16;5092019;28;20044;-60
2022/04/12 01:52:44;;;;;;;7.07;4.22;;;;;;;10.50;49.67;99542.78;5092193;28;20098;-60
2022/04/12 01:55:11;;;;;;;7.20;4.72;;;;;;;10.46;49.65;99543.91;5092182;28;20047;-60
2022/04/12 01:57:38;;;;;;;7.55;4.32;;;;;;;10.45;49.80;99548.31;5092334;28;20044;-60
2022/04/12 02:00:07;;;;;;;9.48;4.70;;;;;;;10.43;49.57;99544.88;5091964;28;20074;-61
2022/04/12 02:02:34;;;;;;;7.15;4.30;;;;;;;10.43;49.83;99547.50;5074055;28;20089;-60
2022/04/12 02:05:00;;;;;;;6.97;4.50;;;;;;;10.41;49.75;99547.63;5092104;28;20053;-61
2022/04/12 02:07:27;;;;;;;6.88;4.22;;;;;;;10.42;49.91;99537.91;5091861;28;20101;-59
2022/04/12 02:09:53;;;;;;;6.18;4.22;;;;;;;10.39;49.75;99538.94;5091319;28;20051;-60
2022/04/12 02:12:20;;;;;;;6.93;4.20;;;;;;;10.37;49.88;99538.22;5092523;28;20060;-60
2022/04/12 02:14:46;;;;;;;5.20;4.20;;;;;;;10.36;49.94;99536.50;5091804;28;20494;-61
2022/04/12 02:17:13;;;;;;;6.63;3.97;;;;;;;10.34;49.82;99530.50;5091487;28;20048;-61
2022/04/12 02:19:40;;;;;;;7.60;4.57;;;;;;;10.33;50.12;99531.44;5091239;28;20541;-59
2022/04/12 02:22:07;;;;;;;8.73;4.70;;;;;;;10.32;50.08;99532.34;5091611;28;20047;-60
2022/04/12 02:24:34;;;;;;;5.78;4.40;;;;;;;10.30;50.16;99527.22;5091414;28;20051;-60
2022/04/12 02:27:01;;;;;;;7.90;4.30;;;;;;;10.28;50.16;99531.69;5091428;28;20059;-60
2022/04/12 02:29:27;;;;;;;7.65;4.47;;;;;;;10.26;50.20;99523.06;5091158;28;20097;-60
2022/04/12 02:31:54;;;;;;;6.18;3.97;;;;;;;10.26;50.26;99520.44;5091414;28;20044;-61
2022/04/12 02:34:20;;;;;;;10.45;4.43;;;;;;;10.25;50.15;99525.78;5091486;28;20093;-60
2022/04/12 02:36:47;;;;;;;7.60;4.43;;;;;;;10.23;50.12;99527.66;5091423;28;20060;-60
2022/04/12 02:39:14;;;;;;;8.68;4.43;;;;;;;10.23;50.00;99527.66;5089932;28;20097;-60
2022/04/12 02:41:40;;;;;;;6.50;4.47;;;;;;;10.22;50.08;99521.56;5091510;28;20043;-60
2022/04/12 02:44:07;;;;;;;6.15;4.13;;;;;;;10.21;50.08;99524.28;5091198;28;20109;-60
2022/04/12 02:46:33;;;;;;;7.88;4.57;;;;;;;10.17;50.15;99519.19;5091300;28;20094;-62
2022/04/12 02:49:00;;;;;;;7.65;5.07;;;;;;;10.15;50.24;99523.72;5091221;28;20044;-60
2022/04/12 02:51:26;;;;;;;7.63;4.40;;;;;;;10.14;50.33;99518.53;5090975;28;20109;-59
2022/04/12 02:53:53;;;;;;;7.13;4.40;;;;;;;10.12;50.32;99513.34;5091361;28;20105;-60
2022/04/12 02:56:19;;;;;;;7.85;4.47;;;;;;;10.11;50.27;99513.44;5091317;28;20047;-59
2022/04/12 02:58:46;;;;;;;8.85;4.45;;;;;;;10.09;50.50;99505.63;5090023;28;20101;-61
2022/04/12 03:01:12;;;;;;;5.22;4.18;;;;;;;10.07;50.65;99509.31;5090976;28;20110;-61
2022/04/12 03:03:40;;;;;;;9.00;4.70;;;;;;;10.04;50.42;99508.56;5091181;28;20056;-61
2022/04/12 03:06:06;;;;;;;7.97;4.40;;;;;;;10.03;50.53;99514.72;5090978;28;20040;-60
2022/04/12 03:08:33;;;;;;;6.45;4.65;;;;;;;10.03;50.45;99511.28;5091135;28;20104;-60
2022/04/12 03:10:59;;;;;;;7.45;4.68;;;;;;;10.02;50.78;99510.41;5090518;28;20390;-60
2022/04/12 03:13:26;;;;;;;7.10;4.38;;;;;;;10.01;50.45;99508.72;5090868;28;20538;-61
2022/04/12 03:15:53;;;;;;;7.45;4.68;;;;;;;10.00;50.60;99493.91;5090823;28;20048;-60
2022/04/12 03:18:20;;;;;;;6.40;4.43;;;;;;;9.99;50.76;99500.06;5090810;28;20059;-60
2022/04/12 03:20:46;;;;;;;6.47;4.30;;;;;;;9.99;50.72;99505.34;5090482;28;20492;-61
2022/04/12 03:23:13;;;;;;;8.07;4.78;;;;;;;9.99;50.76;99497.44;5090847;28;20056;-61
2022/04/12 03:25:40;;;;;;;9.30;4.88;;;;;;;9.98;50.61;99495.75;5089541;28;20048;-60
2022/04/12 03:28:06;;;;;;;6.78;4.80;;;;;;;9.98;50.57;99503.66;5090555;28;20086;-61
2022/04/12 03:30:33;;;;;;;5.53;4.30;;;;;;;9.98;50.77;99508.06;5089859;28;20044;-60
2022/04/12 03:32:59;;;;;;;7.78;4.28;;;;;;;9.98;50.55;99510.72;5090477;28;20067;-60
2022/04/12 03:35:26;;;;;;;6.07;4.30;;;;;;;9.96;50.68;99504.69;5090477;28;20454;-59
2022/04/12 03:37:53;;;;;;;8.15;4.88;;;;;;;9.95;50.66;99501.22;5090360;28;20052;-60
2022/04/12 03:40:21;;;;;;;8.07;4.68;;;;;;;9.95;50.75;99501.22;5090615;28;20156;-59
2022/04/12 03:42:48;;;;;;;8.13;5.07;;;;;;;9.93;50.92;99489.94;5090735;28;20048;-60
2022/04/12 03:45:14;;;;;;;7.35;4.78;;;;;;;9.91;50.60;99481.28;5090495;28;20166;-60
2022/04/12 03:47:41;;;;;;;9.00;4.80;;;;;;;9.89;50.59;99486.66;5090478;28;20052;-61
2022/04/12 03:50:08;;;;;;;7.28;5.20;;;;;;;9.87;50.52;99483.25;5090361;28;20056;-60
2022/04/12 03:52:34;;;;;;;7.88;4.57;;;;;;;9.84;50.71;99475.56;5089255;28;20045;-60
2022/04/12 03:55:01;;;;;;;7.28;4.82;;;;;;;9.82;50.84;99466.91;5090341;28;20048;-61
2022/04/12 03:57:28;;;;;;;6.82;4.88;;;;;;;9.81;51.00;99477.50;5090489;28;20101;-60
2022/04/12 03:59:54;;;;;;;8.88;5.30;;;;;;;9.79;50.91;99477.59;5090156;28;20048;-59
2022/04/12 04:02:21;;;;;;;7.43;5.05;;;;;;;9.78;50.85;99482.00;5090252;28;20125;-61
2022/04/12 04:04:47;;;;;;;10.02;5.28;;;;;;;9.77;50.94;99477.66;5090337;28;20480;-59
2022/04/12 04:07:14;;;;;;;7.85;5.00;;;;;;;9.78;50.97;99486.41;5090525;28;20106;-60
2022/04/12 04:09:40;;;;;;;9.02;5.15;;;;;;;9.76;50.89;99470.72;5090213;28;20432;-60
2022/04/12 04:12:08;;;;;;;8.57;4.88;;;;;;;9.78;50.90;99476.75;5090169;28;20081;-60
2022/04/12 04:14:35;;;;;;;7.13;4.72;;;;;;;9.78;51.11;99481.16;5088776;28;20100;-60
2022/04/12 04:17:01;;;;;;;7.78;5.03;;;;;;;9.79;51.13;99472.31;5090026;28;20584;-60
2022/04/12 04:19:28;;;;;;;7.65;4.93;;;;;;;9.78;51.24;99478.53;5090068;28;20079;-60
2022/04/12 04:21:55;;;;;;;6.30;4.22;;;;;;;9.76;51.08;99475.16;5090103;28;20048;-60
2022/04/12 04:24:23;;;;;;;7.85;5.20;;;;;;;9.76;51.07;99477.78;5089999;28;20048;-61
2022/04/12 04:26:55;;;;;;;7.13;4.93;;;;;;;9.75;51.25;99471.66;5088780;28;20048;-59
2022/04/12 04:29:23;;;;;;;8.37;5.37;;;;;;;9.73;50.98;99460.41;5088715;28;20048;-61
2022/04/12 04:31:51;;;;;;;6.78;4.72;;;;;;;9.72;51.22;99461.31;5088853;28;20798;-60
2022/04/12 04:34:18;;;;;;;10.05;5.55;;;;;;;9.69;51.06;99456.25;5090040;28;20496;-61
2022/04/12 04:36:44;;;;;;;7.72;5.25;;;;;;;9.65;51.28;99452.13;5089910;28;20094;-60
2022/04/12 04:39:11;;;;;;;8.30;5.55;;;;;;;9.63;51.39;99459.22;5089685;28;20074;-60
2022/04/12 04:41:37;;;;;;;9.10;5.88;;;;;;;9.60;51.25;99462.88;5089833;28;20109;-60
2022/04/12 04:44:04;;;;;;;8.50;5.25;;;;;;;9.57;51.43;99463.06;5092596;28;20055;-61
2022/04/12 04:46:31;;;;;;;7.72;5.25;;;;;;;9.56;51.38;99463.13;5092226;28;20052;-60
2022/04/12 04:48:57;;;;;;;7.82;5.47;;;;;;;9.54;51.26;99457.13;5093282;28;20177;-59
2022/04/12 04:51:24;;;;;;;10.60;5.88;;;;;;;9.51;51.51;99464.28;5092916;28;20101;-59
2022/04/12 04:53:57;;;;;;;8.80;5.57;;;;;;;9.49;51.58;99471.38;5093276;28;20401;-60
2022/04/12 04:56:28;;;;;;;8.50;5.40;;;;;;;9.47;51.37;99468.03;5093129;28;20044;-62
2022/04/12 04:58:55;;;;;;;9.32;5.78;;;;;;;9.48;51.71;99476.72;5093206;28;20109;-62
2022/04/12 05:01:21;;;;;;;7.63;5.38;;;;;;;9.47;51.71;99470.66;5092694;28;20435;-59
2022/04/12 05:03:50;;;;;;;8.75;5.47;;;;;;;9.48;51.68;99469.69;5092134;28;20397;-60
2022/04/12 05:06:18;;;;;;;9.57;5.85;;;;;;;9.48;51.88;99472.34;5093107;28;20470;-61
2022/04/12 05:08:45;;;;;;;10.13;5.82;;;;;;;9.48;51.73;99466.22;5092773;28;20083;-61
2022/04/12 05:11:11;;;;;;;9.82;5.60;;;;;;;9.49;51.85;99468.75;5092636;28;20439;-60
2022/04/12 05:13:39;;;;;;;10.25;6.03;;;;;;;9.48;51.93;99469.69;5092989;28;20066;-61
2022/04/12 05:16:06;;;;;;;8.38;5.45;;;;;;;9.48;52.09;99469.69;5093128;28;20059;-60
2022/04/12 05:18:32;;;;;;;6.82;5.03;;;;;;;9.49;52.08;99462.66;5092925;28;20450;-59
2022/04/12 05:20:59;;;;;;;8.43;5.60;;;;;;;9.51;52.18;99481.81;5092450;28;20054;-60
2022/04/12 05:23:25;;;;;;;7.65;5.50;;;;;;;9.49;51.86;99484.53;5092875;28;20094;-61
2022/04/12 05:25:53;;;;;;;7.82;5.07;;;;;;;9.50;51.99;99494.09;5092568;28;20087;-60
2022/04/12 05:28:21;;;;;;;8.93;5.35;;;;;;;9.49;52.12;99495.03;5091520;28;20052;-60
2022/04/12 05:30:48;;;;;;;8.63;5.93;;;;;;;9.51;52.09;99495.81;5092633;28;20139;-59
2022/04/12 05:33:14;;;;;;;10.40;6.00;;;;;;;9.51;52.08;99497.59;5092591;28;20434;-60
2022/04/12 05:35:41;;;;;;;7.82;5.65;;;;;;;9.51;51.98;99497.59;5092267;28;20048;-63
2022/04/12 05:38:08;;;;;;;9.52;5.80;;;;;;;9.51;52.02;99489.69;5092420;28;20048;-60
2022/04/12 05:40:35;;;;;;;13.32;6.00;;;;;;;9.52;52.02;99501.91;5092579;28;20055;-60
2022/04/12 05:43:01;;;;;;;9.25;5.68;;;;;;;9.51;52.01;99498.44;5092345;28;20067;-61
2022/04/12 05:45:28;;;;;;;11.38;5.93;;;;;;;9.52;52.24;99507.16;5092735;28;20055;-61
2022/04/12 05:47:55;;;;;;;7.20;4.88;;;;;;;9.51;52.00;99501.06;5092474;28;20048;-59
2022/04/12 05:50:24;;;;;;;7.05;5.22;;;;;;;9.50;52.02;99498.53;5091852;28;20048;-61
2022/04/12 05:52:52;;;;;;;8.52;5.43;;;;;;;9.50;51.93;99499.34;5090751;28;20549;-60
2022/04/12 05:55:20;;;;;;;11.32;5.80;;;;;;;9.51;52.39;99502.84;5090858;28;20101;-60
2022/04/12 05:57:54;;;;;;;8.20;5.43;;;;;;;9.48;51.77;99495.97;5090969;28;20048;-59
2022/04/12 06:00:22;;;;;;;9.02;5.97;;;;;;;9.54;52.45;99509.69;5091933;28;20048;-59
2022/04/12 06:02:51;;;;;;;8.35;5.80;;;;;;;9.56;52.27;99505.19;5092337;28;20044;-60
2022/04/12 06:05:18;;;;;;;9.68;5.75;;;;;;;9.58;52.67;99506.81;5091735;28;20131;-60
2022/04/12 06:07:45;;;;;;;10.30;6.03;;;;;;;9.60;52.54;99502.31;5092102;28;20129;-60
2022/04/12 06:10:13;;;;;;;9.02;5.80;;;;;;;9.64;52.71;99505.59;5091659;28;20052;-60
2022/04/12 06:12:40;;;;;;;8.27;5.30;;;;;;;9.69;52.70;99508.84;5090541;28;20113;-60
2022/04/12 06:15:07;;;;;;;10.25;5.88;;;;;;;9.73;52.79;99501.59;5091207;28;20044;-60
2022/04/12 06:17:36;;;;;;;7.97;5.70;;;;;;;9.80;53.02;99504.72;5091429;28;20076;-62
2022/04/12 06:20:11;;;;;;;10.85;6.10;;;;;;;9.84;52.43;99507.09;5091513;28;20125;-61
2022/04/12 06:22:39;;;;;;;8.18;5.55;;;;;;;9.94;53.00;99507.38;5090673;28;20400;-62
2022/04/12 06:25:07;;;;;;;9.88;5.07;;;;;;;10.02;52.77;99517.47;5091667;28;20039;-59
2022/04/12 06:27:36;;;;;;;8.65;5.88;;;;;;;10.11;52.95;99513.44;5090461;28;20052;-62
2022/04/12 06:30:11;;;;;;;9.35;5.60;;;;;;;10.19;52.55;99512.97;5089943;28;20063;-60
2022/04/12 06:32:38;;;;;;;7.38;5.68;;;;;;;10.30;53.14;99508.78;5091363;28;20044;-60
2022/04/12 06:35:07;;;;;;;10.93;6.32;;;;;;;10.40;53.34;99510.88;5091674;28;20048;-60
2022/04/12 06:37:33;;;;;;;9.23;5.75;;;;;;;10.52;53.13;99512.78;5091342;28;20048;-60
2022/04/12 06:40:00;;;;;;;8.32;5.57;;;;;;;10.63;53.29;99508.66;5090776;28;20545;-61
2022/04/12 06:42:27;;;;;;;11.98;5.35;;;;;;;10.74;53.01;99516.75;5090197;28;20443;-59
2022/04/12 06:44:54;;;;;;;8.75;5.25;;;;;;;10.86;53.06;99509.00;5089816;28;20052;-60
2022/04/12 06:47:20;;;;;;;9.30;5.70;;;;;;;10.98;53.00;99494.25;5090847;28;20557;-61
2022/04/12 06:49:49;;;;;;;9.55;5.50;;;;;;;11.08;52.78;99487.44;5090906;28;20048;-60
2022/04/12 06:52:18;;;;;;;8.48;5.35;;;;;;;11.20;52.59;99491.06;5089839;28;20058;-61
2022/04/12 06:54:45;;;;;;;10.60;5.30;;;;;;;11.31;52.53;99507.06;5089235;28;20098;-60
2022/04/12 06:57:13;;;;;;;8.80;6.05;;;;;;;11.39;52.26;99506.56;5091046;28;20044;-60
2022/04/12 06:59:40;;;;;;;7.63;5.68;;;;;;;11.50;52.36;99505.00;5089614;28;20710;-60
2022/04/12 07:02:07;;;;;;;9.65;5.80;;;;;;;11.55;52.20;99501.13;5090724;28;20052;-60
2022/04/12 07:04:34;;;;;;;7.85;5.50;;;;;;;11.62;51.94;99506.00;5090736;28;20109;-60
2022/04/12 07:07:01;;;;;;;7.00;5.13;;;;;;;11.66;52.05;99518.88;5090342;28;20047;-59
2022/04/12 07:09:29;;;;;;;8.55;5.20;;;;;;;11.70;51.63;99516.91;5090521;28;20488;-60
2022/04/12 07:11:58;;;;;;;7.47;5.40;;;;;;;11.74;51.70;99526.31;5089423;28;20185;-61
2022/04/12 07:14:25;;;;;;;8.85;5.25;;;;;;;11.78;51.53;99521.66;5090897;28;20093;-60
2022/04/12 07:16:51;;;;;;;8.40;5.88;;;;;;;11.81;51.60;99524.94;5090469;28;20496;-61
2022/04/12 07:19:18;;;;;;;8.43;5.45;;;;;;;11.84;51.57;99534.44;5089183;28;20101;-60
2022/04/12 07:21:46;;;;;;;6.97;5.22;;;;;;;11.85;51.53;99534.34;5090579;28;20052;-60
2022/04/12 07:24:13;;;;;;;9.82;5.13;;;;;;;11.88;51.68;99520.09;5090669;28;20044;-60
2022/04/12 07:26:40;;;;;;;11.13;5.85;;;;;;;11.92;51.62;99507.56;5090492;28;20044;-62
2022/04/12 07:29:06;;;;;;;7.68;5.75;;;;;;;11.96;51.93;99503.78;5090589;28;20052;-63
2022/04/12 07:31:33;;;;;;;9.85;6.10;;;;;;;12.01;51.91;99509.59;5090615;28;20122;-60
2022/04/12 07:34:00;;;;;;;7.43;5.38;;;;;;;12.07;51.77;99511.81;5090504;28;20134;-61
2022/04/12 07:36:27;;;;;;;7.20;5.07;;;;;;;12.14;51.70;99501.72;5090318;28;20040;-60
2022/04/12 07:38:54;;;;;;;7.35;5.53;;;;;;;12.22;51.90;99503.81;5090528;28;20064;-60
2022/04/12 07:41:20;;;;;;;7.28;5.28;;;;;;;12.30;51.87;99501.50;5089946;28;20390;-59
2022/04/12 07:43:48;;;;;;;7.57;5.75;;;;;;;12.40;51.85;99498.25;5090364;28;20411;-59
2022/04/12 07:46:15;;;;;;;9.98;5.47;;;;;;;12.48;51.94;99490.63;5089120;28;20105;-62
2022/04/12 07:48:48;;;;;;;8.80;5.65;;;;;;;12.57;51.92;99490.00;5090328;28;20060;-59
2022/04/12 07:51:15;;;;;;;8.95;5.95;;;;;;;12.65;51.64;99489.47;5089739;28;20420;-62
2022/04/12 07:53:42;;;;;;;10.43;6.05;;;;;;;12.75;51.67;99494.94;5090253;28;20059;-60
2022/04/12 07:56:08;;;;;;;10.10;5.88;;;;;;;12.85;51.59;99487.19;5090245;28;20481;-62
2022/04/12 07:58:35;;;;;;;8.65;5.28;;;;;;;12.95;51.61;99487.38;5090341;28;20056;-60
2022/04/12 08:01:02;;;;;;;8.02;5.70;;;;;;;13.03;51.32;99477.13;5089934;28;20506;-60
2022/04/12 08:03:28;;;;;;;10.70;5.78;;;;;;;13.12;51.74;99480.91;5090033;28;20135;-63
2022/04/12 08:05:56;;;;;;;8.40;5.45;;;;;;;13.21;51.17;99482.03;5090052;28;20129;-61
2022/04/12 08:08:22;;;;;;;8.40;5.88;;;;;;;13.31;51.53;99487.50;5090218;28;20509;-61
2022/04/12 08:10:49;;;;;;;9.43;5.97;;;;;;;13.39;51.28;99487.78;5089879;28;20458;-61
2022/04/12 08:13:15;;;;;;;8.63;5.93;;;;;;;13.51;51.38;99483.41;5090257;28;20105;-60
2022/04/12 08:15:42;;;;;;;8.10;5.20;;;;;;;13.61;51.33;99486.22;5090121;28;20567;-60
2022/04/12 08:18:08;;;;;;;8.38;5.55;;;;;;;13.71;51.28;99489.88;5093470;28;20094;-63
2022/04/12 08:20:35;;;;;;;8.63;5.78;;;;;;;13.82;51.28;99491.69;5093712;28;20060;-63
2022/04/12 08:23:02;;;;;;;11.80;5.95;;;;;;;13.92;51.43;99487.44;5094187;28;20105;-66
2022/04/12 08:25:29;;;;;;;8.52;5.78;;;;;;;14.02;51.27;99492.84;5093988;28;20087;-62
2022/04/12 08:27:56;;;;;;;9.70;5.32;;;;;;;14.13;51.17;99496.50;5093940;28;20059;-60
2022/04/12 08:30:23;;;;;;;13.65;5.50;;;;;;;14.22;51.22;99490.50;5093837;28;20443;-60
2022/04/12 08:32:50;;;;;;;9.10;5.53;;;;;;;14.33;51.00;99487.03;5092335;28;20044;-60
2022/04/12 08:35:16;;;;;;;9.60;6.25;;;;;;;14.44;51.15;99487.00;5093843;28;20047;-60
2022/04/12 08:37:44;;;;;;;8.85;5.45;;;;;;;14.55;51.12;99486.16;5093858;28;20408;-60
2022/04/12 08:40:11;;;;;;;12.27;6.47;;;;;;;14.66;51.22;99477.38;5092290;28;20055;-60
2022/04/12 08:42:40;;;;;;;8.75;5.95;;;;;;;14.79;50.73;99460.53;5092294;28;20040;-61
2022/04/12 08:45:07;;;;;;;12.13;5.72;;;;;;;14.93;50.99;99457.66;5089179;28;20052;-61
2022/04/12 08:47:35;;;;;;;12.40;5.85;;;;;;;15.06;51.12;99462.78;5092661;28;20051;-59
2022/04/12 08:50:04;;;;;;;10.63;6.03;;;;;;;15.20;50.83;99474.09;5091661;28;20048;-62
2022/04/12 08:52:32;;;;;;;8.18;5.55;;;;;;;15.33;50.76;99471.28;5091995;28;20109;-60
2022/04/12 08:54:59;;;;;;;12.85;5.88;;;;;;;15.43;50.86;99472.22;5092225;28;20493;-60
2022/04/12 08:57:25;;;;;;;7.63;5.55;;;;;;;15.56;50.85;99471.22;5091984;28;20060;-60
2022/04/12 08:59:52;;;;;;;10.90;6.20;;;;;;;15.65;50.79;99478.41;5092939;28;20066;-62
2022/04/12 09:02:19;;;;;;;10.35;6.15;;;;;;;15.76;50.87;99477.50;5089358;28;20441;-60
2022/04/12 09:04:45;;;;;;;8.05;5.15;;;;;;;15.90;51.00;99471.06;5085926;28;20059;-60
2022/04/12 09:07:12;;;;;;;7.93;5.90;;;;;;;16.03;51.26;99468.22;5084438;28;20048;-62
2022/04/12 09:09:42;;;;;;;6.95;5.10;;;;;;;16.17;50.14;99467.06;5091705;28;20063;-61
2022/04/12 09:12:14;;;;;;;10.57;5.72;;;;;;;16.31;48.99;99462.38;5091802;28;20090;-60
2022/04/12 09:14:46;;;;;;;8.17;5.87;;;;;;;16.47;49.45;99465.38;5090877;28;20415;-60
2022/04/12 09:17:15;;;;;;;10.10;5.88;;;;;;;16.62;50.63;99471.19;5091748;28;20696;-62
2022/04/12 09:19:47;;;;;;;8.75;5.95;;;;;;;16.78;50.12;99453.88;5092626;28;20052;-62
2022/04/12 09:22:18;;;;;;;8.15;5.63;;;;;;;16.91;50.50;99441.19;5092849;28;20121;-60
2022/04/12 09:24:45;;;;;;;9.52;5.95;;;;;;;17.05;50.63;99444.47;5091489;28;20052;-61
2022/04/12 09:27:14;;;;;;;8.32;6.03;;;;;;;17.17;50.95;99451.34;5092209;28;20063;-61
2022/04/12 09:29:47;;;;;;;9.15;5.85;;;;;;;17.31;49.91;99449.28;5081728;28;20048;-61
2022/04/12 09:32:15;;;;;;;9.00;5.88;;;;;;;17.46;50.94;99452.34;5079268;28;20044;-60
2022/04/12 09:34:43;;;;;;;9.65;5.97;;;;;;;17.58;50.71;99456.53;5090977;28;20048;-60
2022/04/12 09:37:26;;;;;;;9.15;5.85;;;;;;;17.69;48.25;99447.56;5081708;28;20481;-60
2022/04/12 09:40:03;;;;;;;9.68;6.05;;;;;;;17.82;48.76;99447.28;5076169;28;20700;-60
2022/04/12 09:42:48;;;;;;;9.55;5.68;;;;;;;17.97;47.22;99452.16;5085733;28;20097;-60
2022/04/12 09:45:14;;;;;;;9.30;5.88;;;;;;;18.18;48.80;99440.50;5085617;28;20079;-64
2022/04/12 09:47:42;;;;;;;7.20;5.15;;;;;;;18.33;48.38;99436.41;5079822;28;20097;-61
2022/04/12 09:50:31;;;;;;;10.57;5.63;;;;;;;18.52;46.65;99426.63;5082772;28;20059;-63
2022/04/12 09:53:00;;;;;;;10.25;4.90;;;;;;;18.68;46.91;99422.47;5089888;28;20488;-60
2022/04/12 09:55:37;;;;;;;8.18;5.60;;;;;;;18.81;45.48;99422.13;5091405;28;20055;-61
2022/04/12 09:58:15;;;;;;;10.40;5.65;;;;;;;18.99;44.83;99424.84;5089280;28;20051;-62
2022/04/12 10:00:45;;;;;;;8.52;5.05;;;;;;;19.18;46.45;99423.03;5089384;28;20052;-61
2022/04/12 10:03:30;;;;;;;8.88;5.30;;;;;;;19.34;46.25;99406.34;5091092;28;20511;-62
2022/04/12 10:06:05;;;;;;;8.95;5.28;;;;;;;19.52;45.79;99404.47;5091057;28;20040;-61
2022/04/12 10:08:35;;;;;;;9.07;5.70;;;;;;;19.66;45.05;99404.91;5088754;28;20063;-61
2022/04/12 10:11:03;;;;;;;8.48;5.70;;;;;;;19.83;45.78;99405.03;5090226;28;20058;-61
2022/04/12 10:13:31;;;;;;;7.10;5.07;;;;;;;19.97;45.14;99408.97;5091045;28;20044;-61
2022/04/12 10:15:58;;;;;;;6.72;5.10;;;;;;;20.08;44.92;99403.41;5089650;28;20105;-62
2022/04/12 10:18:27;;;;;;;12.13;5.68;;;;;;;20.22;45.45;99404.63;5090957;28;20052;-61
2022/04/12 10:20:54;;;;;;;5.60;4.10;;;;;;;20.35;45.05;99396.19;5088975;28;20079;-63
2022/04/12 10:23:23;;;;;;;7.82;4.70;;;;;;;20.47;44.83;99394.06;5090644;28;20121;-60
2022/04/12 10:25:52;;;;;;;8.32;4.85;;;;;;;20.57;43.73;99389.41;5090775;28;20051;-61
2022/04/12 10:28:20;;;;;;;7.53;4.93;;;;;;;20.67;44.14;99378.56;5089622;28;20102;-61
2022/04/12 10:30:47;;;;;;;6.60;4.47;;;;;;;20.75;43.82;99375.06;5088503;28;20044;-62
2022/04/12 10:33:19;;;;;;;7.90;5.28;;;;;;;20.82;42.77;99380.63;5090759;28;20079;-61
2022/04/12 10:35:45;;;;;;;9.98;5.55;;;;;;;20.90;44.41;99377.97;5090702;28;20048;-61
2022/04/12 10:38:14;;;;;;;7.07;4.15;;;;;;;20.98;43.26;99374.50;5090460;28;20134;-61
2022/04/12 10:40:54;;;;;;;8.60;5.32;;;;;;;21.03;42.96;99371.31;5088733;28;20094;-60
2022/04/12 10:43:33;;;;;;;8.40;5.05;;;;;;;21.14;43.06;99365.66;5089249;28;20052;-61
2022/04/12 10:46:06;;;;;;;11.25;5.53;;;;;;;21.22;41.94;99370.16;5089176;28;20052;-61
2022/04/12 10:48:36;;;;;;;7.68;5.22;;;;;;;21.33;43.44;99369.00;5090167;28;20044;-62
2022/04/12 10:51:04;;;;;;;8.48;5.55;;;;;;;21.41;43.59;99352.94;5089883;28;20117;-62
2022/04/12 10:53:40;;;;;;;9.20;4.90;;;;;;;21.51;41.90;99367.97;5089126;28;20040;-60
2022/04/12 10:56:16;;;;;;;7.13;4.85;;;;;;;21.61;42.21;99364.13;5088942;28;20051;-63
2022/04/12 10:58:44;;;;;;;6.78;4.60;;;;;;;21.81;44.00;99371.00;5090244;28;20056;-61
2022/04/12 11:01:27;;;;;;;7.47;5.10;;;;;;;22.00;43.49;99367.09;5088073;28;20044;-62
2022/04/12 11:03:55;;;;;;;7.03;4.68;;;;;;;22.29;45.16;99364.81;5089238;28;20060;-64
2022/04/12 11:06:24;;;;;;;7.18;5.05;;;;;;;22.61;44.70;99355.00;5090427;28;20563;-61
2022/04/12 11:09:17;;;;;;;6.05;4.63;;;;;;;23.03;42.81;99360.94;5088932;28;20069;-64
2022/04/12 11:11:52;;;;;;;6.70;4.88;;;;;;;23.65;45.06;99363.59;5089821;28;20538;-61
2022/04/12 11:14:22;;;;;;;7.35;4.97;;;;;;;24.29;42.84;99354.19;5090507;28;20282;-60
2022/04/12 11:16:51;;;;;;;10.88;5.55;;;;;;;24.96;44.06;99350.59;5090081;28;20048;-61
2022/04/12 11:19:21;;;;;;;7.63;5.07;;;;;;;25.64;40.68;99349.31;5089880;28;20044;-61
2022/04/12 11:21:56;;;;;;;6.03;5.10;;;;;;;26.32;42.42;99357.81;5088755;28;20055;-61
2022/04/12 11:24:24;;;;;;;9.15;5.28;;;;;;;26.92;40.62;99347.19;5089064;28;20052;-61
2022/04/12 11:27:05;;;;;;;6.10;4.80;;;;;;;27.50;37.90;99349.56;5089003;28;20135;-61
2022/04/12 11:29:32;;;;;;;8.23;5.10;;;;;;;28.05;38.66;99343.00;5088456;28;20602;-61
2022/04/12 11:31:59;;;;;;;7.72;5.68;;;;;;;28.53;37.93;99343.66;5088711;28;20105;-61
2022/04/12 11:34:28;;;;;;;7.55;5.13;;;;;;;28.91;36.42;99353.69;5089638;28;20139;-62
2022/04/12 11:36:58;;;;;;;10.73;5.07;;;;;;;29.24;36.21;99347.19;5090057;28;20059;-62
2022/04/12 11:39:27;;;;;;;6.40;5.22;;;;;;;29.55;35.55;99349.22;5088113;28;20141;-61
2022/04/12 11:41:59;;;;;;;8.77;5.47;;;;;;;29.84;33.45;99344.16;5088503;28;20066;-61